sensor_id;sensor_type;location;lat;lon;timestamp;pressure;altitude;pressure_sealevel;temperature;humidity
55990;BME280;41875;55.806;38.082;2022-10-30T15:36:20;97620.78;;;2.53;56.07
55990;BME280;41875;55.806;38.082;2022-10-30T15:39:05;97628.16;;;2.58;56.14
55990;BME280;41875;55.806;38.082;2022-10-30T15:41:40;97619.63;;;2.82;56.37
55990;BME280;41875;55.806;38.082;2022-10-30T15:44:11;97606.16;;;2.69;56.57
55990;BME280;41875;55.806;38.082;2022-10-30T15:46:43;97606.94;;;3.04;54.93
55990;BME280;41875;55.806;38.082;2022-10-30T15:49:14;97621.50;;;2.64;56.91
55990;BME280;41875;55.806;38.082;2022-10-30T15:51:46;97604.72;;;2.74;56.72
55990;BME280;41875;55.806;38.082;2022-10-30T15:54:17;97629.03;;;2.40;56.79
55990;BME280;41875;55.806;38.082;2022-10-30T15:56:49;97635.72;;;2.69;55.31
55990;BME280;41875;55.806;38.082;2022-10-30T15:59:48;97626.03;;;2.96;55.10
55990;BME280;41875;55.806;38.082;2022-10-30T16:02:20;97637.66;;;2.94;55.98
55990;BME280;41875;55.806;38.082;2022-10-30T16:04:49;97632.06;;;3.23;54.27
55990;BME280;41875;55.806;38.082;2022-10-30T16:07:21;97633.25;;;3.45;53.83
55990;BME280;41875;55.806;38.082;2022-10-30T16:09:51;97635.22;;;2.92;56.60
55990;BME280;41875;55.806;38.082;2022-10-30T16:12:23;97649.22;;;3.26;54.16
55990;BME280;41875;55.806;38.082;2022-10-30T16:14:59;97655.44;;;3.25;54.39
55990;BME280;41875;55.806;38.082;2022-10-30T16:17:29;97646.72;;;3.08;55.41
55990;BME280;41875;55.806;38.082;2022-10-30T16:19:59;97665.22;;;3.14;55.16
55990;BME280;41875;55.806;38.082;2022-10-30T16:22:33;97652.38;;;2.95;55.98
55990;BME280;41875;55.806;38.082;2022-10-30T16:25:05;97653.72;;;2.99;55.73
55990;BME280;41875;55.806;38.082;2022-10-30T16:27:42;97657.63;;;3.46;53.11
55990;BME280;41875;55.806;38.082;2022-10-30T16:30:18;97652.88;;;3.41;54.21
55990;BME280;41875;55.806;38.082;2022-10-30T16:32:50;97673.75;;;3.25;54.08
55990;BME280;41875;55.806;38.082;2022-10-30T16:35:42;97632.00;;;3.15;54.76
55990;BME280;41875;55.806;38.082;2022-10-30T16:38:35;97662.53;;;3.49;53.53
55990;BME280;41875;55.806;38.082;2022-10-30T16:41:05;97675.38;;;3.69;53.26
55990;BME280;41875;55.806;38.082;2022-10-30T16:43:40;97667.19;;;3.88;52.61
55990;BME280;41875;55.806;38.082;2022-10-30T16:46:31;97660.09;;;3.56;55.33
55990;BME280;41875;55.806;38.082;2022-10-30T16:49:05;97668.28;;;3.53;54.81
55990;BME280;41875;55.806;38.082;2022-10-30T16:51:37;97665.41;;;3.29;54.33
55990;BME280;41875;55.806;38.082;2022-10-30T16:54:18;97665.66;;;3.53;54.37
55990;BME280;41875;55.806;38.082;2022-10-30T16:56:50;97673.50;;;3.44;53.98
55990;BME280;41875;55.806;38.082;2022-10-30T16:59:27;97667.31;;;3.54;53.16
55990;BME280;41875;55.806;38.082;2022-10-30T17:02:02;97670.19;;;2.91;55.18
55990;BME280;41875;55.806;38.082;2022-10-30T17:04:34;97658.28;;;3.05;55.02
55990;BME280;41875;55.806;38.082;2022-10-30T17:07:06;97666.13;;;3.40;53.76
55990;BME280;41875;55.806;38.082;2022-10-30T17:09:37;97631.16;;;3.06;53.53
55990;BME280;41875;55.806;38.082;2022-10-30T17:12:12;97679.59;;;3.53;54.43
55990;BME280;41875;55.806;38.082;2022-10-30T17:14:47;97681.03;;;3.47;53.68
55990;BME280;41875;55.806;38.082;2022-10-30T17:17:23;97665.34;;;3.47;53.06
55990;BME280;41875;55.806;38.082;2022-10-30T17:19:59;97694.59;;;3.00;55.02
55990;BME280;41875;55.806;38.082;2022-10-30T17:22:29;97654.06;;;3.72;52.77
55990;BME280;41875;55.806;38.082;2022-10-30T17:25:14;97648.84;;;3.72;53.32
55990;BME280;41875;55.806;38.082;2022-10-30T17:27:46;97662.91;;;3.54;52.08
55990;BME280;41875;55.806;38.082;2022-10-30T17:30:35;97657.06;;;4.02;51.39
55990;BME280;41875;55.806;38.082;2022-10-30T17:33:25;97640.03;;;3.22;53.67
55990;BME280;41875;55.806;38.082;2022-10-30T17:36:02;97662.13;;;3.19;53.20
55990;BME280;41875;55.806;38.082;2022-10-30T17:38:49;97649.91;;;3.28;53.41
55990;BME280;41875;55.806;38.082;2022-10-30T17:41:21;97625.84;;;3.32;52.91
55990;BME280;41875;55.806;38.082;2022-10-30T17:43:57;97645.63;;;3.27;53.13
55990;BME280;41875;55.806;38.082;2022-10-30T17:46:47;97654.47;;;3.26;53.53
55990;BME280;41875;55.806;38.082;2022-10-30T17:49:25;97647.50;;;3.00;54.39
55990;BME280;41875;55.806;38.082;2022-10-30T17:52:23;97626.41;;;3.01;54.59
55990;BME280;41875;55.806;38.082;2022-10-30T17:55:00;97650.97;;;3.68;52.95
55990;BME280;41875;55.806;38.082;2022-10-30T17:57:52;97639.00;;;2.98;55.35
55990;BME280;41875;55.806;38.082;2022-10-30T18:00:31;97659.03;;;3.24;54.49
55990;BME280;41875;55.806;38.082;2022-10-30T18:03:03;97655.91;;;3.20;54.66
55990;BME280;41875;55.806;38.082;2022-10-30T18:05:35;97663.03;;;3.44;53.94
55990;BME280;41875;55.806;38.082;2022-10-30T18:08:13;97635.34;;;3.33;54.52
55990;BME280;41875;55.806;38.082;2022-10-30T18:17:15;97627.13;;;3.20;55.03
55990;BME280;41875;55.806;38.082;2022-10-30T18:20:25;97641.50;;;3.16;56.04
55990;BME280;41875;55.806;38.082;2022-10-30T18:22:56;97611.97;;;2.89;55.50
55990;BME280;41875;55.806;38.082;2022-10-30T18:25:31;97579.16;;;2.60;56.09
55990;BME280;41875;55.806;38.082;2022-10-30T18:28:12;97626.69;;;2.90;56.07
55990;BME280;41875;55.806;38.082;2022-10-30T18:30:48;97627.00;;;2.87;55.92
55990;BME280;41875;55.806;38.082;2022-10-30T18:33:46;97614.59;;;2.89;55.43
55990;BME280;41875;55.806;38.082;2022-10-30T18:36:18;97638.16;;;2.63;57.41
55990;BME280;41875;55.806;38.082;2022-10-30T18:38:51;97634.69;;;3.31;55.55
55990;BME280;41875;55.806;38.082;2022-10-30T18:41:23;97642.88;;;2.94;56.10
55990;BME280;41875;55.806;38.082;2022-10-30T18:43:56;97639.25;;;3.21;54.91
55990;BME280;41875;55.806;38.082;2022-10-30T18:46:26;97637.00;;;2.65;56.78
55990;BME280;41875;55.806;38.082;2022-10-30T18:48:58;97668.34;;;2.57;57.65
55990;BME280;41875;55.806;38.082;2022-10-30T18:51:28;97646.97;;;2.96;55.44
55990;BME280;41875;55.806;38.082;2022-10-30T18:53:57;97642.09;;;2.67;56.85
55990;BME280;41875;55.806;38.082;2022-10-30T18:56:28;97648.16;;;3.02;55.83
55990;BME280;41875;55.806;38.082;2022-10-30T18:58:59;97648.47;;;2.99;55.57
55990;BME280;41875;55.806;38.082;2022-10-30T19:01:29;97639.41;;;2.58;57.06
55990;BME280;41875;55.806;38.082;2022-10-30T19:04:07;97637.81;;;2.92;55.70
55990;BME280;41875;55.806;38.082;2022-10-30T19:06:46;97642.94;;;2.41;56.54
55990;BME280;41875;55.806;38.082;2022-10-30T19:09:51;97609.34;;;2.89;55.82
55990;BME280;41875;55.806;38.082;2022-10-30T19:12:42;97627.81;;;2.87;55.57
55990;BME280;41875;55.806;38.082;2022-10-30T19:15:53;97661.31;;;2.84;56.73
55990;BME280;41875;55.806;38.082;2022-10-30T19:18:27;97654.50;;;2.38;57.38
55990;BME280;41875;55.806;38.082;2022-10-30T19:21:02;97635.94;;;2.76;56.94
55990;BME280;41875;55.806;38.082;2022-10-30T19:23:36;97645.56;;;3.02;55.77
55990;BME280;41875;55.806;38.082;2022-10-30T19:26:11;97640.84;;;2.79;56.05
55990;BME280;41875;55.806;38.082;2022-10-30T19:28:44;97648.19;;;2.49;56.60
55990;BME280;41875;55.806;38.082;2022-10-30T19:31:16;97658.19;;;2.80;55.87
55990;BME280;41875;55.806;38.082;2022-10-30T19:33:45;97637.97;;;2.90;55.13
55990;BME280;41875;55.806;38.082;2022-10-30T19:36:42;97640.09;;;2.61;56.87
55990;BME280;41875;55.806;38.082;2022-10-30T19:39:13;97646.44;;;2.84;55.49
55990;BME280;41875;55.806;38.082;2022-10-30T19:41:43;97641.03;;;2.78;55.87
55990;BME280;41875;55.806;38.082;2022-10-30T19:44:12;97640.25;;;2.85;55.32
55990;BME280;41875;55.806;38.082;2022-10-30T19:46:40;97619.94;;;2.53;55.40
55990;BME280;41875;55.806;38.082;2022-10-30T19:49:15;97640.72;;;2.28;56.31
55990;BME280;41875;55.806;38.082;2022-10-30T19:51:47;97622.31;;;2.64;54.87
55990;BME280;41875;55.806;38.082;2022-10-30T19:54:16;97631.94;;;2.37;55.74
55990;BME280;41875;55.806;38.082;2022-10-30T19:56:44;97655.63;;;2.36;56.49
55990;BME280;41875;55.806;38.082;2022-10-30T19:59:14;97616.25;;;2.64;53.89
55990;BME280;41875;55.806;38.082;2022-10-30T20:01:45;97649.53;;;2.27;55.15
55990;BME280;41875;55.806;38.082;2022-10-30T20:04:13;97626.81;;;2.54;54.11
55990;BME280;41875;55.806;38.082;2022-10-30T20:06:42;97621.84;;;2.16;54.18
55990;BME280;41875;55.806;38.082;2022-10-30T20:09:12;97633.63;;;2.73;53.00
55990;BME280;41875;55.806;38.082;2022-10-30T20:11:40;97630.69;;;2.41;53.83
55990;BME280;41875;55.806;38.082;2022-10-30T20:14:09;97630.09;;;2.29;53.99
55990;BME280;41875;55.806;38.082;2022-10-30T20:16:38;97649.06;;;2.84;52.88
55990;BME280;41875;55.806;38.082;2022-10-30T20:19:25;97624.94;;;2.38;54.79
55990;BME280;41875;55.806;38.082;2022-10-30T20:21:55;97628.16;;;2.58;53.68
55990;BME280;41875;55.806;38.082;2022-10-30T20:24:25;97623.97;;;2.39;53.73
55990;BME280;41875;55.806;38.082;2022-10-30T20:26:54;97618.78;;;2.82;52.74
55990;BME280;41875;55.806;38.082;2022-10-30T20:29:24;97630.03;;;2.74;52.63
55990;BME280;41875;55.806;38.082;2022-10-30T20:31:52;97624.72;;;2.57;53.21
55990;BME280;41875;55.806;38.082;2022-10-30T20:34:20;97609.16;;;2.82;52.47
55990;BME280;41875;55.806;38.082;2022-10-30T20:36:49;97613.41;;;2.22;53.17
55990;BME280;41875;55.806;38.082;2022-10-30T20:39:17;97619.28;;;2.51;52.66
55990;BME280;41875;55.806;38.082;2022-10-30T20:41:47;97616.75;;;2.67;52.24
55990;BME280;41875;55.806;38.082;2022-10-30T20:44:16;97621.06;;;2.42;52.70
55990;BME280;41875;55.806;38.082;2022-10-30T20:46:44;97617.56;;;2.33;52.51
55990;BME280;41875;55.806;38.082;2022-10-30T20:49:13;97614.53;;;2.46;52.16
55990;BME280;41875;55.806;38.082;2022-10-30T20:51:45;97623.59;;;1.53;54.40
55990;BME280;41875;55.806;38.082;2022-10-30T20:54:13;97606.59;;;2.03;52.46
55990;BME280;41875;55.806;38.082;2022-10-30T20:56:42;97607.94;;;2.68;50.74
55990;BME280;41875;55.806;38.082;2022-10-30T20:59:12;97617.41;;;2.35;51.56
55990;BME280;41875;55.806;38.082;2022-10-30T21:01:41;97618.00;;;2.28;51.01
55990;BME280;41875;55.806;38.082;2022-10-30T21:04:11;97620.97;;;2.07;51.92
55990;BME280;41875;55.806;38.082;2022-10-30T21:06:39;97602.53;;;2.09;51.25
55990;BME280;41875;55.806;38.082;2022-10-30T21:09:08;97621.78;;;2.61;50.37
55990;BME280;41875;55.806;38.082;2022-10-30T21:11:36;97605.16;;;2.09;50.81
55990;BME280;41875;55.806;38.082;2022-10-30T21:14:06;97617.91;;;1.94;51.31
55990;BME280;41875;55.806;38.082;2022-10-30T21:16:36;97631.03;;;2.20;50.56
55990;BME280;41875;55.806;38.082;2022-10-30T21:19:04;97620.50;;;2.12;50.58
55990;BME280;41875;55.806;38.082;2022-10-30T21:21:33;97627.50;;;2.56;49.85
55990;BME280;41875;55.806;38.082;2022-10-30T21:24:01;97627.41;;;1.59;51.50
55990;BME280;41875;55.806;38.082;2022-10-30T21:26:30;97622.41;;;2.28;50.27
55990;BME280;41875;55.806;38.082;2022-10-30T21:29:00;97633.63;;;2.20;50.17
55990;BME280;41875;55.806;38.082;2022-10-30T21:31:29;97619.84;;;2.10;50.30
55990;BME280;41875;55.806;38.082;2022-10-30T21:33:58;97618.91;;;1.75;51.62
55990;BME280;41875;55.806;38.082;2022-10-30T21:36:27;97615.59;;;2.09;50.60
55990;BME280;41875;55.806;38.082;2022-10-30T21:38:57;97624.56;;;2.33;49.38
55990;BME280;41875;55.806;38.082;2022-10-30T21:41:25;97627.06;;;2.34;49.23
55990;BME280;41875;55.806;38.082;2022-10-30T21:43:55;97628.88;;;2.68;48.26
55990;BME280;41875;55.806;38.082;2022-10-30T21:46:26;97630.97;;;2.65;48.64
55990;BME280;41875;55.806;38.082;2022-10-30T21:48:55;97622.47;;;2.36;49.18
55990;BME280;41875;55.806;38.082;2022-10-30T21:51:25;97621.47;;;2.98;47.58
55990;BME280;41875;55.806;38.082;2022-10-30T21:53:54;97620.59;;;2.02;48.92
55990;BME280;41875;55.806;38.082;2022-10-30T21:56:25;97633.22;;;1.71;49.52
55990;BME280;41875;55.806;38.082;2022-10-30T21:58:54;97635.69;;;1.72;49.98
55990;BME280;41875;55.806;38.082;2022-10-30T22:01:24;97631.13;;;2.37;48.02
55990;BME280;41875;55.806;38.082;2022-10-30T22:03:54;97633.34;;;2.23;48.83
55990;BME280;41875;55.806;38.082;2022-10-30T22:06:22;97632.09;;;1.91;49.29
55990;BME280;41875;55.806;38.082;2022-10-30T22:08:53;97622.13;;;2.13;48.68
55990;BME280;41875;55.806;38.082;2022-10-30T22:11:24;97624.94;;;1.93;48.80
55990;BME280;41875;55.806;38.082;2022-10-30T22:13:53;97623.19;;;2.20;48.21
55990;BME280;41875;55.806;38.082;2022-10-30T22:16:23;97627.84;;;2.35;48.33
55990;BME280;41875;55.806;38.082;2022-10-30T22:18:52;97612.81;;;2.10;48.53
55990;BME280;41875;55.806;38.082;2022-10-30T22:21:20;97616.72;;;2.33;47.41
55990;BME280;41875;55.806;38.082;2022-10-30T22:23:49;97612.56;;;1.77;48.69
55990;BME280;41875;55.806;38.082;2022-10-30T22:26:21;97591.88;;;2.28;48.41
55990;BME280;41875;55.806;38.082;2022-10-30T22:28:51;97612.47;;;2.32;47.37
55990;BME280;41875;55.806;38.082;2022-10-30T22:31:22;97605.28;;;2.07;47.29
55990;BME280;41875;55.806;38.082;2022-10-30T22:33:51;97612.94;;;2.27;47.19
55990;BME280;41875;55.806;38.082;2022-10-30T22:36:22;97607.22;;;1.79;47.83
55990;BME280;41875;55.806;38.082;2022-10-30T22:38:54;97608.22;;;1.86;47.75
55990;BME280;41875;55.806;38.082;2022-10-30T22:41:28;97594.06;;;2.33;46.95
55990;BME280;41875;55.806;38.082;2022-10-30T22:44:04;97596.56;;;2.17;47.46
55990;BME280;41875;55.806;38.082;2022-10-30T22:46:35;97610.72;;;2.14;47.92
55990;BME280;41875;55.806;38.082;2022-10-30T22:49:05;97615.94;;;2.14;47.61
55990;BME280;41875;55.806;38.082;2022-10-30T22:51:35;97604.56;;;2.50;46.88
55990;BME280;41875;55.806;38.082;2022-10-30T22:54:06;97615.44;;;2.10;47.11
55990;BME280;41875;55.806;38.082;2022-10-30T22:56:38;97599.91;;;1.64;48.00
55990;BME280;41875;55.806;38.082;2022-10-30T22:59:09;97595.94;;;1.60;48.99
55990;BME280;41875;55.806;38.082;2022-10-30T23:01:39;97598.03;;;2.19;47.28
55990;BME280;41875;55.806;38.082;2022-10-30T23:04:09;97557.44;;;1.80;48.51
55990;BME280;41875;55.806;38.082;2022-10-30T23:06:38;97592.50;;;2.22;47.22
55990;BME280;41875;55.806;38.082;2022-10-30T23:09:08;97610.09;;;1.94;47.80
55990;BME280;41875;55.806;38.082;2022-10-30T23:11:38;97593.16;;;2.51;46.67
55990;BME280;41875;55.806;38.082;2022-10-30T23:14:07;97584.66;;;2.49;46.29
55990;BME280;41875;55.806;38.082;2022-10-30T23:16:35;97592.06;;;1.64;48.42
55990;BME280;41875;55.806;38.082;2022-10-30T23:19:04;97582.19;;;1.94;47.75
55990;BME280;41875;55.806;38.082;2022-10-30T23:21:32;97589.88;;;1.96;47.92
55990;BME280;41875;55.806;38.082;2022-10-30T23:24:02;97602.97;;;2.22;47.42
55990;BME280;41875;55.806;38.082;2022-10-30T23:26:32;97579.84;;;2.09;47.74
55990;BME280;41875;55.806;38.082;2022-10-30T23:29:03;97584.22;;;2.62;46.58
55990;BME280;41875;55.806;38.082;2022-10-30T23:31:33;97570.53;;;2.33;47.22
55990;BME280;41875;55.806;38.082;2022-10-30T23:34:04;97579.38;;;3.10;45.37
55990;BME280;41875;55.806;38.082;2022-10-30T23:36:33;97575.69;;;2.25;47.15
55990;BME280;41875;55.806;38.082;2022-10-30T23:39:05;97571.91;;;2.46;46.78
55990;BME280;41875;55.806;38.082;2022-10-30T23:41:34;97575.22;;;2.56;46.49
55990;BME280;41875;55.806;38.082;2022-10-30T23:44:05;97580.81;;;2.35;46.89
55990;BME280;41875;55.806;38.082;2022-10-30T23:46:34;97545.09;;;2.09;47.73
55990;BME280;41875;55.806;38.082;2022-10-30T23:49:03;97565.94;;;1.82;48.18
55990;BME280;41875;55.806;38.082;2022-10-30T23:51:32;97564.06;;;2.19;47.46
55990;BME280;41875;55.806;38.082;2022-10-30T23:54:01;97576.50;;;1.99;48.28
55990;BME280;41875;55.806;38.082;2022-10-30T23:56:32;97560.84;;;1.99;47.89
55990;BME280;41875;55.806;38.082;2022-10-30T23:59:00;97570.97;;;2.28;47.41
